Time;durP1;ratioP1;P1;durP2;ratioP2;P2;SDS_P1;SDS_P2;PMS_P1;PMS_P2;Temp;Humidity;BMP_temperature;BMP_pressure;BME280_temperature;BME280_humidity;BME280_pressure;Samples;Min_cycle;Max_cycle;Signal;HPM_P1;HPM_P2
2022/01/17 00:01:30;;;;;;;2.73;1.03;;;7.50;99.90;;;;;;6159640;23;20635;-91
2022/01/17 00:03:57;;;;;;;2.23;2.13;;;7.50;99.90;;;;;;6209934;23;20194;-90
2022/01/17 00:06:23;;;;;;;1.00;0.50;;;7.60;99.90;;;;;;6184715;23;20165;-90
2022/01/17 00:08:49;;;;;;;3.07;1.20;;;7.60;99.90;;;;;;6209122;23;20194;-91
2022/01/17 00:11:16;;;;;;;0.27;0.27;;;7.60;99.90;;;;;;6184573;23;20205;-91
2022/01/17 00:13:47;;;;;;;0.30;0.30;;;7.60;99.90;;;;;;6159938;23;20194;-91
2022/01/17 00:16:18;;;;;;;5.57;1.60;;;7.70;99.90;;;;;;6184045;23;20205;-91
2022/01/17 00:21:10;;;;;;;1.40;0.70;;;7.60;99.90;;;;;;6211600;23;20182;-91
2022/01/17 00:23:36;;;;;;;0.83;0.60;;;7.60;99.90;;;;;;6184442;23;20569;-91
2022/01/17 00:26:04;;;;;;;1.13;0.57;;;7.50;99.90;;;;;;6159510;23;20563;-91
2022/01/17 00:28:30;;;;;;;0.60;0.60;;;7.50;99.90;;;;;;6184381;23;20200;-91
2022/01/17 00:30:56;;;;;;;0.40;0.37;;;7.50;99.90;;;;;;6159945;23;20627;-91
2022/01/17 00:33:22;;;;;;;11.03;0.63;;;7.50;99.90;;;;;;6210668;23;20170;-91
2022/01/17 00:35:48;;;;;;;0.20;0.20;;;7.50;99.90;;;;;;6159467;23;20205;-90
2022/01/17 00:38:14;;;;;;;0.53;0.53;;;7.50;99.90;;;;;;6159271;23;20249;-91
2022/01/17 00:40:41;;;;;;;0.20;0.20;;;7.50;99.90;;;;;;6183876;23;20206;-91
2022/01/17 00:43:07;;;;;;;0.40;0.40;;;7.50;99.90;;;;;;6184290;23;20204;-91
2022/01/17 00:45:35;;;;;;;0.30;0.30;;;7.40;99.90;;;;;;6159659;23;20162;-91
2022/01/17 00:48:01;;;;;;;2.63;0.93;;;7.50;99.90;;;;;;6185004;23;20168;-91
2022/01/17 00:50:28;;;;;;;7.07;1.23;;;7.50;99.90;;;;;;6183764;23;20229;-91
2022/01/17 00:52:55;;;;;;;0.50;0.50;;;7.50;99.90;;;;;;6183631;23;20204;-91
2022/01/17 00:55:21;;;;;;;0.20;0.20;;;7.50;99.90;;;;;;6184236;23;20681;-92
2022/01/17 00:57:47;;;;;;;0.93;0.93;;;7.60;99.90;;;;;;6184230;23;20177;-91
2022/01/17 01:00:14;;;;;;;0.80;0.80;;;7.50;99.90;;;;;;6209068;23;20495;-91
2022/01/17 01:02:40;;;;;;;0.20;0.20;;;7.50;99.90;;;;;;6208920;23;20205;-91
2022/01/17 01:05:07;;;;;;;0.50;0.50;;;7.40;99.90;;;;;;6208677;23;20301;-91
2022/01/17 01:07:33;;;;;;;5.60;1.23;;;7.40;99.90;;;;;;6183484;23;20192;-91
2022/01/17 01:10:06;;;;;;;0.47;0.13;;;7.30;99.90;;;;;;6183753;23;20573;-91
2022/01/17 01:12:32;;;;;;;0.80;0.80;;;7.30;99.90;;;;;;6162057;23;20179;-91
2022/01/17 01:14:59;;;;;;;3.20;0.70;;;7.20;99.90;;;;;;6209160;23;20190;-91
2022/01/17 01:17:47;;;;;;;1.10;1.03;;;7.20;99.90;;;;;;6184044;23;20225;-92
2022/01/17 01:21:16;;;;;;;0.87;0.87;;;7.20;99.90;;;;;;6187985;23;20795;-91
2022/01/17 01:28:31;;;;;;;0.23;0.23;;;7.20;99.90;;;;;;6188149;23;20229;-91
2022/01/17 01:30:59;;;;;;;0.50;0.50;;;7.20;99.90;;;;;;6208502;23;20201;-90
2022/01/17 01:33:38;;;;;;;1.33;1.30;;;7.10;99.90;;;;;;6160670;23;20579;-91
2022/01/17 01:36:13;;;;;;;1.20;0.60;;;7.20;99.90;;;;;;6186396;23;20190;-91
2022/01/17 01:38:41;;;;;;;0.70;0.50;;;7.20;99.90;;;;;;6208718;23;20327;-90
2022/01/17 01:41:07;;;;;;;0.60;0.60;;;7.20;99.90;;;;;;6158962;23;20201;-91
2022/01/17 01:43:34;;;;;;;0.47;0.47;;;7.30;99.90;;;;;;6208066;23;20201;-91
2022/01/17 01:46:01;;;;;;;0.67;0.67;;;7.30;99.90;;;;;;6208691;23;20190;-91
2022/01/17 01:48:29;;;;;;;0.20;0.20;;;7.30;99.90;;;;;;6184333;23;20185;-89
2022/01/17 01:50:55;;;;;;;1.00;0.73;;;7.40;99.90;;;;;;6208532;23;20245;-91
2022/01/17 01:53:23;;;;;;;0.60;0.57;;;7.40;99.90;;;;;;6208201;23;20225;-91
2022/01/17 01:55:52;;;;;;;0.97;0.37;;;7.40;99.90;;;;;;6159215;23;20659;-91
2022/01/17 01:58:19;;;;;;;0.30;0.30;;;7.30;99.90;;;;;;6208366;23;20198;-90
2022/01/17 02:00:45;;;;;;;0.10;0.10;;;7.30;99.90;;;;;;6209493;23;20161;-90
2022/01/17 02:03:11;;;;;;;0.40;0.40;;;7.30;99.90;;;;;;6159211;23;20154;-90
2022/01/17 02:05:37;;;;;;;1.43;0.63;;;7.30;99.90;;;;;;6158502;23;20284;-91
2022/01/17 02:08:05;;;;;;;2.03;0.63;;;7.30;99.90;;;;;;6158394;23;20208;-90
2022/01/17 02:10:31;;;;;;;0.50;0.50;;;7.30;99.90;;;;;;6183863;23;20216;-91
2022/01/17 02:12:57;;;;;;;1.37;1.23;;;7.20;99.90;;;;;;6208187;23;20198;-91
2022/01/17 02:15:23;;;;;;;0.40;0.33;;;7.20;99.90;;;;;;6158634;23;20194;-91
2022/01/17 02:17:56;;;;;;;3.27;1.30;;;7.20;99.90;;;;;;6158822;23;20204;-91
2022/01/17 02:20:35;;;;;;;6.87;1.50;;;7.20;99.90;;;;;;6184505;23;20198;-90
2022/01/17 02:23:04;;;;;;;2.67;0.73;;;7.20;99.90;;;;;;6208361;23;20645;-91
2022/01/17 02:25:30;;;;;;;0.30;0.30;;;7.30;99.90;;;;;;6183655;23;20189;-90
2022/01/17 02:27:57;;;;;;;0.97;0.83;;;7.30;99.90;;;;;;6208196;23;20221;-90
2022/01/17 02:30:25;;;;;;;4.53;2.07;;;7.40;99.90;;;;;;6184327;23;20162;-90
2022/01/17 02:32:51;;;;;;;0.73;0.30;;;7.30;99.90;;;;;;6183905;23;20260;-91
2022/01/17 02:35:23;;;;;;;1.10;0.37;;;7.40;99.90;;;;;;6207629;23;20244;-91
2022/01/17 02:37:50;;;;;;;2.03;0.93;;;7.40;99.90;;;;;;6208217;23;20324;-91
2022/01/17 02:40:18;;;;;;;4.90;1.00;;;7.40;99.90;;;;;;6207767;23;20206;-90
2022/01/17 02:42:48;;;;;;;0.17;0.17;;;7.40;99.90;;;;;;6183562;23;20588;-91
2022/01/17 02:45:32;;;;;;;0.20;0.20;;;7.50;99.90;;;;;;6184066;23;20147;-91
2022/01/17 02:48:00;;;;;;;17.13;3.23;;;7.50;99.90;;;;;;6165347;23;20178;-90
2022/01/17 02:50:26;;;;;;;3.13;2.43;;;7.50;99.90;;;;;;6158475;23;20206;-91
2022/01/17 02:52:56;;;;;;;0.47;0.47;;;7.50;99.90;;;;;;6208392;23;20260;-91
2022/01/17 02:55:22;;;;;;;2.03;1.33;;;7.50;99.90;;;;;;6184151;23;20202;-91
2022/01/17 02:57:49;;;;;;;2.47;2.33;;;7.50;99.90;;;;;;6183219;23;20198;-91
2022/01/17 03:00:15;;;;;;;2.57;0.70;;;7.50;99.90;;;;;;6159569;23;20181;-91
2022/01/17 03:02:42;;;;;;;0.73;0.47;;;7.60;99.90;;;;;;6183613;23;20197;-91
2022/01/17 03:05:10;;;;;;;0.43;0.43;;;7.60;99.90;;;;;;6158858;23;20202;-90
2022/01/17 03:07:36;;;;;;;6.50;1.17;;;7.60;99.90;;;;;;6158735;23;20208;-90
2022/01/17 03:10:04;;;;;;;2.03;0.40;;;7.60;99.90;;;;;;6158384;23;20194;-91
2022/01/17 03:12:30;;;;;;;0.10;0.10;;;7.60;99.90;;;;;;6160174;23;20619;-91
2022/01/17 03:14:57;;;;;;;2.17;1.97;;;7.60;99.90;;;;;;6185611;23;20235;-90
2022/01/17 03:17:23;;;;;;;0.43;0.27;;;7.60;99.90;;;;;;6210632;23;20204;-90
2022/01/17 03:19:49;;;;;;;9.50;2.07;;;7.60;99.90;;;;;;6160580;23;20232;-90
2022/01/17 03:22:15;;;;;;;0.67;0.67;;;7.60;99.90;;;;;;6209936;23;20198;-91
2022/01/17 03:24:40;;;;;;;1.23;0.80;;;7.60;99.90;;;;;;6160592;23;20174;-90
2022/01/17 03:27:06;;;;;;;0.30;0.30;;;7.60;99.90;;;;;;6210334;23;20150;-91
2022/01/17 03:29:32;;;;;;;0.17;0.17;;;7.60;99.90;;;;;;6209403;23;20202;-90
2022/01/17 03:31:58;;;;;;;2.47;2.27;;;7.60;99.90;;;;;;6159852;23;20204;-91
2022/01/17 03:34:24;;;;;;;0.20;0.20;;;7.60;99.90;;;;;;6185062;23;20263;-91
2022/01/17 03:36:49;;;;;;;1.80;1.70;;;7.60;99.90;;;;;;6160485;23;20211;-91
2022/01/17 03:39:16;;;;;;;0.10;0.10;;;7.60;99.90;;;;;;6160089;23;20198;-90
2022/01/17 03:41:42;;;;;;;3.57;1.87;;;7.60;99.90;;;;;;6184554;23;20214;-91
2022/01/17 03:44:08;;;;;;;1.10;1.10;;;7.70;99.90;;;;;;6184914;23;20256;-91
2022/01/17 03:46:35;;;;;;;1.77;1.07;;;7.70;99.90;;;;;;6184568;23;20193;-91
2022/01/17 03:49:00;;;;;;;0.83;0.57;;;7.70;99.90;;;;;;6184730;23;20201;-91
2022/01/17 03:51:26;;;;;;;1.40;1.30;;;7.80;99.90;;;;;;6161018;23;20495;-91
2022/01/17 03:53:52;;;;;;;1.70;1.20;;;7.70;99.90;;;;;;6184856;23;20186;-91
2022/01/17 03:56:18;;;;;;;4.40;1.47;;;7.70;99.90;;;;;;6159888;23;20205;-90
2022/01/17 03:58:46;;;;;;;7.87;1.47;;;7.60;99.90;;;;;;6160285;23;20662;-91
2022/01/17 04:01:12;;;;;;;6.80;0.47;;;7.60;99.90;;;;;;6184852;23;20255;-90
2022/01/17 04:03:38;;;;;;;3.20;0.93;;;7.60;99.90;;;;;;6184993;23;20592;-91
2022/01/17 04:06:04;;;;;;;3.27;0.60;;;7.60;99.90;;;;;;6210281;23;20158;-91
2022/01/17 04:08:31;;;;;;;1.43;0.83;;;7.70;99.90;;;;;;6184371;23;20295;-91
2022/01/17 04:10:57;;;;;;;0.60;0.50;;;7.70;99.90;;;;;;6184952;23;20198;-92
2022/01/17 04:13:23;;;;;;;3.63;1.30;;;7.70;99.90;;;;;;6209430;23;20202;-91
2022/01/17 04:15:49;;;;;;;1.70;1.60;;;7.70;99.90;;;;;;6184836;23;20205;-90
2022/01/17 04:18:19;;;;;;;1.50;1.17;;;7.70;99.90;;;;;;6210253;23;20193;-91
2022/01/17 04:20:45;;;;;;;1.17;0.30;;;7.80;99.90;;;;;;6209661;23;20259;-91
2022/01/17 04:23:12;;;;;;;0.53;0.53;;;7.80;99.90;;;;;;6184203;23;20202;-90
2022/01/17 04:25:40;;;;;;;0.47;0.47;;;7.80;99.90;;;;;;6159323;23;20644;-91
2022/01/17 04:28:08;;;;;;;3.60;0.50;;;7.90;99.90;;;;;;6209389;23;20193;-90
2022/01/17 04:30:34;;;;;;;6.80;0.63;;;7.90;99.90;;;;;;6209727;23;20580;-90
2022/01/17 04:33:00;;;;;;;2.37;2.00;;;7.90;99.90;;;;;;6209728;23;20154;-90
2022/01/17 04:35:27;;;;;;;4.33;0.87;;;7.90;99.90;;;;;;6183714;23;20212;-91
2022/01/17 04:38:17;;;;;;;2.70;1.90;;;8.00;99.90;;;;;;6209340;23;20635;-91
2022/01/17 04:40:48;;;;;;;1.37;0.73;;;8.00;99.90;;;;;;6209239;23;20210;-91
2022/01/17 04:45:45;;;;;;;0.63;0.50;;;7.90;99.90;;;;;;6211111;23;20154;-90
2022/01/17 04:48:10;;;;;;;1.13;0.97;;;7.90;99.90;;;;;;6184563;23;20162;-91
2022/01/17 04:50:36;;;;;;;4.80;0.30;;;7.90;99.90;;;;;;6184173;23;20198;-90
2022/01/17 04:53:03;;;;;;;0.90;0.60;;;7.90;99.90;;;;;;6184303;23;21025;-90
2022/01/17 04:55:29;;;;;;;5.47;1.73;;;7.90;99.90;;;;;;6184484;23;20554;-91
2022/01/17 04:57:58;;;;;;;23.70;1.60;;;7.90;99.90;;;;;;6184279;23;20194;-91
2022/01/17 05:00:26;;;;;;;0.53;0.53;;;7.90;99.90;;;;;;6161395;23;20158;-91
2022/01/17 05:02:53;;;;;;;0.30;0.30;;;8.00;99.90;;;;;;6184786;23;20210;-91
2022/01/17 05:05:19;;;;;;;1.13;1.13;;;8.00;99.90;;;;;;6208994;23;20198;-90
2022/01/17 05:07:45;;;;;;;3.90;0.70;;;8.00;99.90;;;;;;6209254;23;20204;-90
2022/01/17 05:10:13;;;;;;;0.53;0.53;;;8.10;99.90;;;;;;6184514;23;20647;-91
2022/01/17 05:12:39;;;;;;;6.03;1.03;;;8.10;99.90;;;;;;6209296;23;20167;-91
2022/01/17 05:15:10;;;;;;;0.80;0.80;;;8.10;99.90;;;;;;6184787;23;20186;-91
2022/01/17 05:17:43;;;;;;;0.77;0.73;;;8.10;99.90;;;;;;6184430;23;20295;-91
2022/01/17 05:20:09;;;;;;;14.57;1.77;;;8.10;99.90;;;;;;6162135;23;20643;-91
2022/01/17 05:22:37;;;;;;;2.77;1.90;;;8.10;99.90;;;;;;6184144;23;20234;-90
2022/01/17 05:25:06;;;;;;;5.67;1.13;;;8.10;99.90;;;;;;6209073;23;20201;-91
2022/01/17 05:27:34;;;;;;;10.30;1.50;;;8.10;99.90;;;;;;6209159;23;20169;-91
2022/01/17 05:30:00;;;;;;;1.53;0.90;;;8.10;99.90;;;;;;6210014;23;20523;-91
2022/01/17 05:32:26;;;;;;;0.40;0.40;;;8.10;99.90;;;;;;6158617;23;20681;-91
2022/01/17 05:34:51;;;;;;;1.27;1.00;;;8.10;99.90;;;;;;6183187;23;20202;-91
2022/01/17 05:37:17;;;;;;;1.50;0.67;;;8.10;99.90;;;;;;6144294;23;20190;-91
2022/01/17 05:39:44;;;;;;;0.87;0.87;;;8.20;99.90;;;;;;6183395;23;20162;-91
2022/01/17 05:42:17;;;;;;;0.37;0.37;;;8.10;99.90;;;;;;6183512;23;20190;-91
2022/01/17 05:44:48;;;;;;;1.53;0.63;;;8.10;99.90;;;;;;6184477;23;20277;-91
2022/01/17 05:47:15;;;;;;;5.40;1.03;;;8.20;99.90;;;;;;6208150;23;20281;-91
2022/01/17 05:49:41;;;;;;;0.33;0.33;;;8.20;99.90;;;;;;6208616;23;20272;-91
2022/01/17 05:52:07;;;;;;;1.57;1.47;;;8.20;99.90;;;;;;6207106;23;20252;-91
2022/01/17 05:54:34;;;;;;;3.17;1.17;;;8.20;99.90;;;;;;6208010;23;20233;-92
2022/01/17 05:57:00;;;;;;;17.40;4.37;;;8.20;99.90;;;;;;6209054;23;20666;-90
2022/01/17 05:59:26;;;;;;;15.00;2.47;;;8.10;99.90;;;;;;6181259;23;20202;-90
2022/01/17 06:01:52;;;;;;;0.23;0.23;;;8.10;99.90;;;;;;6183298;23;20193;-90
2022/01/17 06:04:18;;;;;;;1.27;1.13;;;8.20;99.90;;;;;;6158861;23;20568;-90
2022/01/17 06:06:43;;;;;;;0.63;0.63;;;8.20;99.90;;;;;;6183271;23;20203;-91
2022/01/17 06:09:09;;;;;;;1.50;1.20;;;8.20;99.90;;;;;;6158975;23;20162;-90
2022/01/17 06:11:35;;;;;;;4.20;0.80;;;8.20;99.90;;;;;;6183602;23;20296;-90
2022/01/17 06:14:02;;;;;;;1.17;0.60;;;8.20;99.90;;;;;;6158868;23;20200;-90
2022/01/17 06:16:30;;;;;;;4.07;0.90;;;8.20;99.90;;;;;;6208096;23;21201;-90
2022/01/17 06:18:56;;;;;;;0.93;0.63;;;8.10;99.90;;;;;;6159688;23;20221;-91
2022/01/17 06:21:22;;;;;;;2.37;1.17;;;8.20;99.90;;;;;;6184142;23;20587;-90
2022/01/17 06:23:47;;;;;;;2.13;1.67;;;8.20;99.90;;;;;;6183282;23;20232;-91
2022/01/17 06:26:13;;;;;;;1.13;1.03;;;8.20;99.90;;;;;;6183260;23;20500;-90
2022/01/17 06:28:39;;;;;;;3.80;0.87;;;8.10;99.90;;;;;;6182896;23;20202;-90
2022/01/17 06:31:05;;;;;;;9.70;1.10;;;8.20;99.90;;;;;;6158329;23;20273;-90
2022/01/17 06:33:30;;;;;;;6.50;1.60;;;8.20;99.90;;;;;;6208152;23;20188;-90
2022/01/17 06:35:56;;;;;;;4.47;0.53;;;8.20;99.90;;;;;;6158545;23;20185;-90
2022/01/17 06:38:22;;;;;;;2.33;1.80;;;8.20;99.90;;;;;;6207900;23;20201;-91
2022/01/17 06:40:48;;;;;;;0.70;0.50;;;8.20;99.90;;;;;;6158071;23;20221;-91
2022/01/17 06:43:14;;;;;;;4.03;1.10;;;8.30;99.90;;;;;;6158383;23;20193;-90
2022/01/17 06:45:39;;;;;;;2.87;1.40;;;8.30;99.90;;;;;;6183045;23;20166;-90
2022/01/17 06:48:06;;;;;;;1.33;1.30;;;8.30;99.90;;;;;;6182913;23;20169;-91
2022/01/17 06:50:32;;;;;;;0.20;0.20;;;8.30;99.90;;;;;;6157887;23;20205;-91
2022/01/17 06:52:58;;;;;;;9.03;2.40;;;8.40;99.90;;;;;;6158152;23;20206;-91
2022/01/17 06:55:24;;;;;;;0.93;0.60;;;8.40;99.90;;;;;;6158246;23;20209;-91
2022/01/17 06:57:50;;;;;;;5.00;1.70;;;8.40;99.90;;;;;;6158709;23;20190;-90
2022/01/17 07:00:16;;;;;;;0.40;0.40;;;8.50;99.90;;;;;;6183181;23;20660;-90
2022/01/17 07:02:42;;;;;;;7.77;1.80;;;8.50;99.90;;;;;;6207505;23;20226;-90
2022/01/17 07:05:08;;;;;;;8.20;1.30;;;8.50;99.90;;;;;;6158148;23;20289;-90
2022/01/17 07:07:34;;;;;;;8.40;1.63;;;8.60;99.90;;;;;;6207522;23;20194;-91
2022/01/17 07:10:00;;;;;;;4.70;2.07;;;8.60;99.90;;;;;;6182391;23;20209;-91
2022/01/17 07:12:26;;;;;;;1.03;0.93;;;8.60;99.90;;;;;;6159097;23;20162;-91
2022/01/17 07:14:51;;;;;;;0.83;0.83;;;8.60;99.90;;;;;;6183084;23;20656;-91
2022/01/17 07:17:19;;;;;;;1.43;0.83;;;8.60;99.90;;;;;;6157700;23;20217;-90
2022/01/17 07:19:44;;;;;;;1.70;1.13;;;8.60;99.90;;;;;;6182894;23;20193;-90
2022/01/17 07:22:11;;;;;;;7.03;2.00;;;8.60;99.90;;;;;;6157988;23;20186;-90
2022/01/17 07:24:37;;;;;;;0.17;0.17;;;8.60;99.90;;;;;;6207834;23;20588;-90
2022/01/17 07:27:03;;;;;;;0.47;0.47;;;8.60;99.90;;;;;;6184070;23;20614;-90
2022/01/17 07:29:29;;;;;;;2.37;1.33;;;8.60;99.90;;;;;;6182677;23;20206;-90
2022/01/17 07:31:55;;;;;;;10.97;1.77;;;8.60;99.90;;;;;;6158265;23;20204;-89
2022/01/17 07:34:21;;;;;;;1.30;0.20;;;8.70;99.90;;;;;;6182276;23;20210;-91
2022/01/17 07:36:47;;;;;;;5.87;0.60;;;8.70;99.90;;;;;;6208475;23;20182;-91
2022/01/17 07:39:13;;;;;;;0.63;0.63;;;8.70;99.90;;;;;;6159576;23;20158;-91
2022/01/17 07:41:39;;;;;;;11.60;1.40;;;8.70;99.90;;;;;;6157943;23;20221;-92
2022/01/17 07:44:07;;;;;;;2.67;0.70;;;8.70;99.90;;;;;;6158677;23;20581;-92
2022/01/17 07:46:47;;;;;;;0.87;0.83;;;8.80;99.90;;;;;;6158848;23;20250;-94
2022/01/17 07:49:19;;;;;;;0.17;0.17;;;8.80;99.90;;;;;;6188140;23;20204;-92
2022/01/17 07:51:47;;;;;;;0.10;0.10;;;8.90;99.90;;;;;;6208499;23;20200;-92
2022/01/17 07:54:15;;;;;;;7.73;0.60;;;8.90;99.90;;;;;;6208715;23;20150;-91
2022/01/17 07:56:42;;;;;;;2.83;1.70;;;9.00;99.90;;;;;;6207520;23;20264;-92
2022/01/17 07:59:10;;;;;;;1.63;1.10;;;9.00;99.90;;;;;;6208101;23;20574;-92
2022/01/17 08:01:37;;;;;;;0.77;0.77;;;9.00;99.90;;;;;;6183797;23;20202;-91
2022/01/17 08:04:05;;;;;;;10.27;0.93;;;9.00;99.90;;;;;;6185980;23;20190;-92
2022/01/17 08:06:33;;;;;;;0.73;0.73;;;9.00;99.90;;;;;;6184951;23;20217;-91
2022/01/17 08:08:58;;;;;;;4.00;0.30;;;9.10;99.90;;;;;;6186426;23;20162;-92
2022/01/17 08:11:24;;;;;;;1.20;0.93;;;9.10;99.90;;;;;;6185560;23;20293;-92
2022/01/17 08:13:50;;;;;;;0.87;0.53;;;9.10;99.90;;;;;;6161550;23;20205;-92
2022/01/17 08:16:16;;;;;;;2.93;1.33;;;9.10;99.90;;;;;;6160733;23;20209;-92
2022/01/17 08:18:42;;;;;;;0.53;0.33;;;9.10;99.90;;;;;;6186012;23;20237;-92
2022/01/17 08:21:08;;;;;;;0.97;0.97;;;9.10;99.90;;;;;;6185358;23;20162;-92
2022/01/17 08:23:33;;;;;;;0.83;0.73;;;9.20;99.90;;;;;;6159982;23;20202;-91
2022/01/17 08:25:59;;;;;;;0.40;0.30;;;9.10;99.90;;;;;;6159992;23;20197;-91
2022/01/17 08:28:25;;;;;;;0.33;0.33;;;9.10;99.90;;;;;;6159639;23;20202;-91
2022/01/17 08:30:51;;;;;;;2.40;1.17;;;9.20;99.90;;;;;;6185644;23;20193;-91
2022/01/17 08:33:17;;;;;;;0.67;0.67;;;9.20;99.90;;;;;;6161378;23;20166;-91
2022/01/17 08:35:43;;;;;;;0.50;0.50;;;9.30;99.90;;;;;;6162094;23;20205;-91
2022/01/17 08:38:08;;;;;;;0.30;0.30;;;9.30;99.90;;;;;;6186464;23;20198;-91
2022/01/17 08:40:34;;;;;;;1.60;1.50;;;9.30;99.90;;;;;;6184949;23;20284;-91
2022/01/17 08:43:00;;;;;;;24.03;4.80;;;9.40;99.90;;;;;;6185850;23;20201;-90
2022/01/17 08:45:27;;;;;;;1.53;1.53;;;9.40;99.90;;;;;;6160706;23;20197;-91
2022/01/17 08:47:54;;;;;;;8.70;2.10;;;9.40;99.90;;;;;;6212569;23;20186;-89
2022/01/17 08:50:22;;;;;;;1.43;1.33;;;9.40;99.90;;;;;;6184249;23;20954;-91
2022/01/17 08:52:49;;;;;;;0.63;0.63;;;9.40;99.90;;;;;;6184215;23;20198;-91
2022/01/17 08:55:16;;;;;;;3.23;0.40;;;9.50;99.90;;;;;;6184479;23;20208;-90
2022/01/17 08:57:42;;;;;;;3.17;0.57;;;9.50;99.90;;;;;;6210168;23;20576;-91
2022/01/17 09:00:12;;;;;;;4.67;0.63;;;9.50;99.90;;;;;;6209644;23;20152;-91
2022/01/17 09:02:39;;;;;;;0.30;0.30;;;9.60;99.90;;;;;;6208675;23;20193;-91
2022/01/17 09:05:05;;;;;;;1.67;1.53;;;9.60;99.90;;;;;;6159585;23;20201;-91
2022/01/17 09:07:34;;;;;;;1.90;1.80;;;9.60;99.90;;;;;;6183786;23;20230;-91
2022/01/17 09:10:00;;;;;;;0.90;0.90;;;9.60;99.90;;;;;;6159161;23;20220;-92
2022/01/17 09:12:26;;;;;;;1.50;0.20;;;9.60;99.90;;;;;;6185482;23;20162;-92
2022/01/17 09:14:52;;;;;;;0.20;0.20;;;9.70;99.90;;;;;;6160063;23;20244;-91
2022/01/17 09:17:18;;;;;;;0.30;0.30;;;9.70;99.90;;;;;;6210399;23;20201;-92
2022/01/17 09:19:46;;;;;;;0.43;0.43;;;9.80;99.90;;;;;;6184297;23;20303;-92
2022/01/17 09:22:12;;;;;;;2.00;1.37;;;9.90;99.90;;;;;;6208875;23;20246;-90
2022/01/17 09:24:39;;;;;;;10.50;2.00;;;10.00;99.90;;;;;;6208831;23;20156;-91
2022/01/17 09:27:08;;;;;;;1.20;0.83;;;9.90;99.90;;;;;;6210329;23;20180;-92
2022/01/17 09:29:34;;;;;;;0.10;0.10;;;9.90;99.90;;;;;;6208827;23;20285;-92
2022/01/17 09:32:00;;;;;;;0.90;0.83;;;10.00;99.90;;;;;;6184200;23;20200;-91
2022/01/17 09:34:26;;;;;;;3.73;0.40;;;10.00;99.90;;;;;;6210026;23;20198;-91
2022/01/17 09:36:57;;;;;;;6.40;2.63;;;10.00;99.90;;;;;;6209405;23;20256;-90
2022/01/17 09:39:23;;;;;;;0.77;0.77;;;10.00;99.90;;;;;;6209097;23;20261;-92
2022/01/17 09:41:49;;;;;;;2.97;1.47;;;10.00;99.90;;;;;;6209796;23;20247;-91
2022/01/17 09:44:15;;;;;;;0.43;0.37;;;10.00;99.90;;;;;;6207562;23;20201;-91
2022/01/17 09:46:45;;;;;;;3.33;0.60;;;10.00;99.90;;;;;;6208447;23;20198;-91
2022/01/17 09:49:36;;;;;;;0.30;0.30;;;10.10;99.90;;;;;;6184839;23;20194;-91
2022/01/17 09:52:14;;;;;;;1.90;0.63;;;10.00;99.90;;;;;;6210227;23;20190;-90
2022/01/17 09:54:43;;;;;;;3.87;1.43;;;10.10;99.90;;;;;;6209913;23;20150;-91
2022/01/17 09:57:11;;;;;;;0.27;0.27;;;10.00;99.90;;;;;;6185691;23;20194;-91
2022/01/17 09:59:47;;;;;;;0.60;0.60;;;10.10;99.90;;;;;;6186916;23;20519;-91
2022/01/17 10:02:13;;;;;;;2.57;0.40;;;10.10;99.90;;;;;;6209976;23;20198;-91
2022/01/17 10:04:40;;;;;;;0.73;0.73;;;10.10;99.90;;;;;;6184385;23;20193;-92
2022/01/17 10:07:06;;;;;;;7.93;0.57;;;10.10;99.90;;;;;;6185856;23;20957;-91
2022/01/17 10:09:34;;;;;;;10.03;1.27;;;10.20;99.90;;;;;;6185253;23;20162;-91
2022/01/17 10:12:03;;;;;;;5.17;1.33;;;10.30;99.90;;;;;;6186755;23;20178;-92
2022/01/17 10:14:35;;;;;;;2.23;0.37;;;10.20;99.90;;;;;;6210517;23;20276;-92
2022/01/17 10:17:07;;;;;;;4.43;0.80;;;10.20;99.90;;;;;;6210121;23;20209;-91
2022/01/17 10:19:33;;;;;;;3.13;1.37;;;10.20;99.90;;;;;;6184929;23;20578;-91
2022/01/17 10:22:01;;;;;;;0.80;0.57;;;10.20;99.90;;;;;;6186109;23;20186;-92
2022/01/17 10:24:40;;;;;;;4.27;1.07;;;10.30;99.90;;;;;;6187053;23;20158;-91
2022/01/17 10:27:28;;;;;;;1.60;1.03;;;10.40;99.90;;;;;;6210411;23;20265;-91
2022/01/17 10:35:33;;;;;;;2.67;1.60;;;10.40;99.90;;;;;;6211269;23;20210;-91
2022/01/17 10:38:14;;;;;;;2.17;0.97;;;10.40;99.90;;;;;;6210451;23;20197;-91
2022/01/17 10:41:00;;;;;;;5.97;0.50;;;10.40;99.90;;;;;;6210153;23;20209;-91
2022/01/17 10:43:34;;;;;;;4.80;0.77;;;10.50;99.90;;;;;;6211888;23;20213;-91
2022/01/17 10:46:03;;;;;;;3.40;1.13;;;10.40;99.90;;;;;;6187222;23;20666;-92
2022/01/17 10:48:34;;;;;;;2.27;1.03;;;10.30;99.90;;;;;;6211149;23;20165;-92
2022/01/17 10:51:02;;;;;;;2.93;1.33;;;10.20;99.90;;;;;;6211639;23;20474;-92
2022/01/17 10:53:28;;;;;;;3.67;0.33;;;10.20;99.90;;;;;;6210405;23;20200;-92
2022/01/17 10:55:56;;;;;;;2.33;1.63;;;10.20;99.90;;;;;;6209421;23;20233;-91
2022/01/17 10:58:31;;;;;;;9.43;0.63;;;10.30;99.90;;;;;;6209932;23;20496;-91
2022/01/17 11:01:16;;;;;;;0.37;0.37;;;10.30;99.90;;;;;;6210980;23;20224;-91
2022/01/17 11:03:44;;;;;;;1.37;0.90;;;10.30;99.90;;;;;;6212233;23;20526;-90
2022/01/17 11:06:19;;;;;;;3.20;1.63;;;10.30;99.90;;;;;;6188370;23;20182;-92
2022/01/17 11:08:46;;;;;;;2.53;2.33;;;10.30;99.90;;;;;;6212808;23;20720;-91
2022/01/17 11:11:12;;;;;;;1.90;0.50;;;10.30;99.90;;;;;;6163185;23;20244;-90
2022/01/17 11:13:42;;;;;;;1.43;1.03;;;10.30;99.90;;;;;;6213304;23;20193;-92
2022/01/17 11:16:11;;;;;;;6.43;0.97;;;10.30;99.90;;;;;;6188161;23;20213;-91
2022/01/17 11:18:43;;;;;;;4.00;0.80;;;10.30;99.90;;;;;;6211523;23;20579;-92
2022/01/17 11:21:13;;;;;;;5.53;0.90;;;10.40;99.90;;;;;;6212707;23;20146;-96
2022/01/17 11:23:43;;;;;;;6.20;1.70;;;10.40;99.90;;;;;;6185552;23;20210;-89
2022/01/17 11:26:10;;;;;;;2.37;1.80;;;10.40;99.90;;;;;;6208861;23;20198;-91
2022/01/17 11:28:37;;;;;;;1.43;0.33;;;10.40;99.90;;;;;;6183307;23;20277;-89
2022/01/17 11:31:06;;;;;;;5.97;2.20;;;10.40;99.90;;;;;;6182827;23;20196;-89
2022/01/17 11:33:34;;;;;;;2.90;1.53;;;10.40;99.90;;;;;;6207236;23;20182;-89
2022/01/17 11:36:00;;;;;;;4.60;0.73;;;10.40;99.90;;;;;;6210118;23;20185;-88
2022/01/17 11:38:36;;;;;;;0.60;0.60;;;10.40;99.90;;;;;;6185014;23;20663;-89
2022/01/17 11:41:04;;;;;;;0.87;0.50;;;10.50;99.90;;;;;;6209474;23;20200;-89
2022/01/17 11:43:37;;;;;;;5.40;1.90;;;10.50;99.90;;;;;;6209714;23;20190;-89
2022/01/17 11:46:25;;;;;;;2.27;0.57;;;10.50;99.90;;;;;;6211087;23;20201;-92
2022/01/17 11:49:02;;;;;;;7.10;2.23;;;10.50;99.90;;;;;;6210586;23;20205;-91
2022/01/17 11:51:39;;;;;;;4.80;2.07;;;10.50;99.90;;;;;;6211151;23;20138;-90
2022/01/17 11:54:14;;;;;;;0.80;0.80;;;10.60;99.90;;;;;;6211630;23;20514;-91
2022/01/17 11:57:04;;;;;;;2.83;1.57;;;10.60;99.90;;;;;;6209550;23;21029;-91
2022/01/17 11:59:48;;;;;;;6.07;3.40;;;10.50;99.90;;;;;;6210213;23;20196;-91
2022/01/17 12:02:33;;;;;;;1.80;0.80;;;10.60;99.90;;;;;;6211515;23;20215;-91
2022/01/17 12:05:08;;;;;;;1.43;1.37;;;10.70;99.90;;;;;;6184937;23;20193;-91
2022/01/17 12:07:44;;;;;;;1.87;0.70;;;10.70;99.90;;;;;;6209509;23;20288;-91
2022/01/17 12:10:14;;;;;;;12.73;2.93;;;10.70;99.90;;;;;;6210399;23;20647;-91
2022/01/17 12:12:40;;;;;;;1.00;0.90;;;10.60;99.90;;;;;;6209577;23;20163;-91
2022/01/17 12:15:19;;;;;;;2.83;1.83;;;10.60;99.90;;;;;;6185485;23;20154;-91
2022/01/17 12:17:49;;;;;;;4.17;1.03;;;10.60;99.90;;;;;;6185128;23;20206;-92
2022/01/17 12:20:17;;;;;;;0.50;0.50;;;10.60;99.90;;;;;;6184375;23;20281;-91
2022/01/17 12:22:45;;;;;;;0.83;0.80;;;10.60;99.90;;;;;;6160308;23;20252;-91
2022/01/17 12:25:26;;;;;;;3.30;0.63;;;10.70;99.90;;;;;;6209440;23;20189;-92
2022/01/17 12:28:18;;;;;;;3.87;1.03;;;10.60;99.90;;;;;;6208990;23;20190;-92
2022/01/17 12:30:56;;;;;;;0.20;0.20;;;10.60;99.90;;;;;;6201721;23;21082;-91
2022/01/17 12:33:39;;;;;;;4.13;3.87;;;10.60;99.90;;;;;;6209126;23;20152;-91
2022/01/17 12:36:28;;;;;;;2.70;0.97;;;10.60;99.90;;;;;;6208834;23;20198;-90
2022/01/17 12:39:30;;;;;;;30.93;1.93;;;10.60;99.90;;;;;;6208774;23;20208;-92
2022/01/17 12:42:02;;;;;;;1.70;1.53;;;10.60;99.90;;;;;;6036468;23;20256;-91
2022/01/17 12:44:32;;;;;;;3.20;0.60;;;10.60;99.90;;;;;;6136202;23;20516;-91
2022/01/17 12:47:01;;;;;;;0.43;0.43;;;10.60;99.90;;;;;;6207643;23;20206;-90
2022/01/17 12:49:30;;;;;;;4.70;1.00;;;10.60;99.90;;;;;;6208322;23;20216;-91
2022/01/17 12:51:58;;;;;;;4.73;2.13;;;10.60;99.90;;;;;;6184310;23;20718;-90
2022/01/17 12:54:31;;;;;;;0.90;0.70;;;10.70;99.90;;;;;;6159721;23;20158;-90
2022/01/17 12:56:59;;;;;;;3.53;0.57;;;10.70;99.90;;;;;;6183534;23;20654;-90
2022/01/17 12:59:26;;;;;;;0.10;0.10;;;10.70;99.90;;;;;;6208081;23;20194;-90
2022/01/17 13:01:57;;;;;;;3.33;0.90;;;10.70;99.90;;;;;;6182818;23;20285;-90
2022/01/17 13:04:29;;;;;;;2.90;1.57;;;10.70;99.90;;;;;;6207196;23;20194;-90
2022/01/17 13:06:56;;;;;;;3.60;1.00;;;10.70;99.90;;;;;;6182750;23;20197;-90
2022/01/17 13:09:25;;;;;;;5.33;2.70;;;10.70;99.90;;;;;;6158887;23;20220;-91
2022/01/17 13:11:53;;;;;;;3.30;0.97;;;10.50;99.90;;;;;;6207823;23;20667;-89
2022/01/17 13:14:21;;;;;;;4.23;2.57;;;10.50;99.90;;;;;;6207986;23;20212;-89
2022/01/17 13:16:49;;;;;;;7.63;1.87;;;10.50;99.90;;;;;;6207808;23;20248;-89